Time;durP1;ratioP1;P1;durP2;ratioP2;P2;SDS_P1;SDS_P2;PMS_P1;PMS_P2;Temp;Humidity;BMP_temperature;BMP_pressure;BME280_temperature;BME280_humidity;BME280_pressure;Samples;Min_cycle;Max_cycle;Signal;HPM_P1;HPM_P2
2022/06/12 00:03:57;;;;;;;10.10;3.10;;;;;;;18.23;53.32;101037.03;10397788;28;20038;-77
2022/06/12 00:09:00;;;;;;;11.13;2.83;;;;;;;17.97;54.16;101028.84;10385684;28;20144;-79
2022/06/12 00:14:05;;;;;;;10.70;3.78;;;;;;;17.51;55.90;101040.78;10390577;28;20057;-78
2022/06/12 00:19:09;;;;;;;7.90;3.38;;;;;;;17.52;55.67;101043.31;10354498;28;20054;-77
2022/06/12 00:24:16;;;;;;;7.88;3.42;;;;;;;17.41;56.00;101038.97;10363647;28;20158;-78
2022/06/12 00:29:22;;;;;;;9.90;3.40;;;;;;;17.77;55.43;101038.13;10367382;28;20057;-78
2022/06/12 00:34:29;;;;;;;7.50;2.58;;;;;;;17.91;54.35;101043.91;10379858;28;20080;-78
2022/06/12 00:39:32;;;;;;;10.98;3.85;;;;;;;17.67;55.32;101033.66;10386886;28;20049;-77
2022/06/12 00:44:41;;;;;;;14.05;4.28;;;;;;;17.75;55.61;101030.16;10384555;28;20114;-77
2022/06/12 00:49:47;;;;;;;13.23;3.67;;;;;;;17.80;55.61;101033.25;10377216;28;20459;-78
2022/06/12 00:54:54;;;;;;;13.20;3.58;;;;;;;17.47;56.40;101032.09;10368833;28;20053;-77
2022/06/12 01:00:02;;;;;;;8.07;3.10;;;;;;;17.43;57.20;101030.69;10369131;28;20058;-76
2022/06/12 01:10:38;;;;;;;12.15;3.30;;;;;;;17.36;57.68;101022.31;10351634;28;20050;-77
2022/06/12 01:15:45;;;;;;;8.93;3.67;;;;;;;16.69;58.90;101018.91;10358547;28;20077;-78
2022/06/12 01:20:57;;;;;;;13.38;3.47;;;;;;;16.25;60.41;101025.88;10367956;28;20045;-77
2022/06/12 01:26:41;;;;;;;17.67;3.75;;;;;;;16.11;60.50;101021.75;10375048;28;20053;-77
2022/06/12 01:31:53;;;;;;;12.77;4.07;;;;;;;16.26;60.39;101030.31;10382491;28;20107;-78
2022/06/12 01:37:06;;;;;;;9.87;4.43;;;;;;;16.08;60.84;101025.59;10379158;28;20080;-79
2022/06/12 01:42:19;;;;;;;13.20;4.93;;;;;;;15.93;61.49;101027.03;10377196;28;20280;-79
2022/06/12 01:47:31;;;;;;;15.77;4.75;;;;;;;15.80;61.70;101024.66;10363114;28;20045;-79
2022/06/12 01:52:46;;;;;;;10.70;4.25;;;;;;;16.00;61.20;101014.63;10380827;28;21321;-78
2022/06/12 01:57:56;;;;;;;14.00;4.68;;;;;;;16.06;61.28;101032.16;10388495;28;20064;-79
2022/06/12 02:03:08;;;;;;;13.60;4.13;;;;;;;15.89;61.42;101028.34;10385744;28;20054;-79
2022/06/12 02:08:18;;;;;;;18.23;4.25;;;;;;;16.00;61.42;101028.19;10352510;28;20080;-79
2022/06/12 02:13:25;;;;;;;14.43;5.22;;;;;;;16.00;60.70;101025.47;10390050;28;20147;-77
2022/06/12 02:18:34;;;;;;;16.17;4.95;;;;;;;15.78;61.78;101021.22;10367623;28;20686;-79
2022/06/12 02:23:42;;;;;;;10.20;4.53;;;;;;;15.89;61.48;101023.78;10366688;28;20056;-79
2022/06/12 02:28:49;;;;;;;15.00;4.65;;;;;;;16.06;60.98;101019.47;10346500;28;20046;-79
2022/06/12 02:33:59;;;;;;;9.32;4.18;;;;;;;15.81;61.52;101014.66;10356524;28;20116;-79
2022/06/12 02:39:06;;;;;;;14.27;4.15;;;;;;;15.83;61.57;101009.97;10372291;28;20080;-79
2022/06/12 02:44:13;;;;;;;17.17;4.57;;;;;;;15.83;61.40;101018.94;10368341;28;20112;-79
2022/06/12 02:49:20;;;;;;;18.15;5.20;;;;;;;15.70;61.40;101005.66;10355115;28;20054;-77
2022/06/12 02:54:31;;;;;;;9.90;4.05;;;;;;;15.47;62.27;101010.53;10357227;28;20054;-79
2022/06/12 02:59:50;;;;;;;15.43;5.47;;;;;;;15.58;61.72;101012.25;10356853;28;21284;-79
2022/06/12 03:04:59;;;;;;;17.73;4.63;;;;;;;15.41;61.77;101011.09;10385039;28;20051;-79
2022/06/12 03:10:07;;;;;;;16.08;4.88;;;;;;;15.19;62.32;101012.16;10369800;28;20050;-77
2022/06/12 03:15:30;;;;;;;11.38;4.68;;;;;;;15.38;61.83;101018.63;10364277;28;20049;-79
2022/06/12 03:20:43;;;;;;;11.20;4.38;;;;;;;15.40;61.49;101020.19;10354693;28;20050;-78
2022/06/12 03:25:52;;;;;;;7.47;4.22;;;;;;;15.21;62.37;101025.53;10392414;28;20056;-79
2022/06/12 03:31:03;;;;;;;20.73;6.15;;;;;;;15.39;61.90;101020.34;10364387;28;20058;-78
2022/06/12 03:36:15;;;;;;;14.05;4.13;;;;;;;15.44;61.54;101028.88;10390453;28;20053;-78
2022/06/12 03:41:24;;;;;;;12.85;4.13;;;;;;;15.65;61.14;101016.06;10390664;28;20060;-80
2022/06/12 03:46:33;;;;;;;10.52;4.57;;;;;;;15.70;60.83;101024.63;10360567;28;20054;-79
2022/06/12 03:51:42;;;;;;;13.77;4.55;;;;;;;15.56;60.83;101030.47;10356015;28;21191;-80
2022/06/12 04:02:16;;;;;;;16.65;4.45;;;;;;;15.25;62.13;101032.41;10378564;28;21181;-79
2022/06/12 04:07:24;;;;;;;16.10;4.50;;;;;;;15.43;62.28;101029.88;10378056;28;20166;-79
2022/06/12 04:12:30;;;;;;;11.20;4.30;;;;;;;15.62;62.01;101032.59;10358954;28;20061;-79
2022/06/12 04:17:33;;;;;;;9.65;4.07;;;;;;;15.72;61.43;101029.91;10357862;28;20116;-79
2022/06/12 04:22:47;;;;;;;15.15;4.28;;;;;;;15.73;61.34;101022.63;10384839;28;20080;-78
2022/06/12 04:27:50;;;;;;;12.85;4.88;;;;;;;15.85;61.23;101026.91;10368302;28;20639;-78
2022/06/12 04:33:16;;;;;;;10.45;4.63;;;;;;;15.78;61.26;101025.78;10374451;28;20115;-79
2022/06/12 04:38:21;;;;;;;18.50;4.50;;;;;;;15.91;61.94;101027.19;10358231;28;21192;-79
2022/06/12 04:43:24;;;;;;;14.07;4.78;;;;;;;16.19;61.74;101030.00;10353653;28;20096;-79
2022/06/12 04:48:30;;;;;;;9.35;3.70;;;;;;;16.32;61.53;101027.03;10356125;28;20133;-80
2022/06/12 04:53:35;;;;;;;15.38;4.70;;;;;;;16.30;61.63;101010.91;10376554;28;20103;-79
2022/06/12 04:58:38;;;;;;;13.27;5.30;;;;;;;16.35;62.01;101018.59;10366684;28;20125;-78
2022/06/12 05:03:42;;;;;;;14.95;4.70;;;;;;;16.45;61.84;101011.28;10364194;28;20056;-78
2022/06/12 05:08:47;;;;;;;11.85;4.72;;;;;;;16.33;61.90;101028.72;10353432;28;20050;-78
2022/06/12 05:13:50;;;;;;;16.13;5.68;;;;;;;16.40;62.24;101008.19;10352437;28;20058;-79
2022/06/12 05:18:53;;;;;;;12.77;4.97;;;;;;;16.72;62.18;101021.31;10361396;28;20058;-79
2022/06/12 05:23:57;;;;;;;15.15;5.68;;;;;;;16.95;61.70;101010.06;10382895;28;20045;-77
2022/06/12 05:29:01;;;;;;;15.02;6.13;;;;;;;17.00;61.75;101024.03;10407216;28;20139;-78
2022/06/12 05:34:04;;;;;;;14.40;5.80;;;;;;;16.90;61.99;101026.81;10354462;28;20045;-78
2022/06/12 05:39:08;;;;;;;15.43;5.30;;;;;;;16.55;63.07;101027.53;10354081;28;20057;-79
2022/06/12 05:44:11;;;;;;;15.27;6.18;;;;;;;16.71;63.19;101025.03;10377724;28;20116;-78
2022/06/12 05:49:15;;;;;;;12.82;4.97;;;;;;;16.65;61.76;101028.34;10368347;28;20049;-79
2022/06/12 05:54:19;;;;;;;19.33;5.63;;;;;;;16.95;62.00;101027.22;10363916;28;20063;-78
2022/06/12 05:59:22;;;;;;;11.00;5.00;;;;;;;17.17;61.45;101031.44;10377743;28;20042;-79
2022/06/12 06:04:25;;;;;;;15.93;4.00;;;;;;;16.99;58.53;101030.47;10344990;28;20135;-77
2022/06/12 06:09:30;;;;;;;13.00;2.63;;;;;;;17.22;55.26;101017.38;10351843;28;20041;-79
2022/06/12 06:14:33;;;;;;;8.02;2.20;;;;;;;17.50;53.45;101028.19;10359801;28;20054;-79
2022/06/12 06:19:40;;;;;;;9.25;2.10;;;;;;;17.70;49.56;101017.03;10361572;28;20050;-79
2022/06/12 06:24:45;;;;;;;10.02;1.85;;;;;;;17.31;49.83;101024.63;10346844;28;20456;-81
2022/06/12 06:29:48;;;;;;;9.10;2.08;;;;;;;18.32;50.73;101014.34;10385713;28;20072;-79
2022/06/12 06:34:51;;;;;;;8.25;1.42;;;;;;;18.79;47.99;101008.50;10375715;28;20108;-82
2022/06/12 06:39:55;;;;;;;7.70;1.90;;;;;;;18.82;48.84;101014.66;10354504;28;20172;-82
2022/06/12 06:50:20;;;;;;;6.55;1.95;;;;;;;19.46;47.45;101018.56;10357873;28;20154;-79
2022/06/12 06:55:24;;;;;;;7.70;2.22;;;;;;;19.18;47.70;101016.13;10346999;28;20079;-80
2022/06/12 07:00:30;;;;;;;6.57;1.80;;;;;;;19.60;47.35;101028.84;10343855;28;20101;-80
2022/06/12 07:05:34;;;;;;;6.13;1.85;;;;;;;18.91;47.57;101024.53;10352618;28;20419;-80
2022/06/12 07:10:39;;;;;;;6.72;1.98;;;;;;;19.64;46.65;101024.78;10354660;28;20206;-81
2022/06/12 07:15:42;;;;;;;7.93;2.10;;;;;;;20.59;45.45;101026.09;10363397;28;20061;-82
2022/06/12 07:20:48;;;;;;;6.93;1.65;;;;;;;22.27;41.84;101025.47;10348811;28;20052;-81
2022/06/12 07:25:55;;;;;;;14.18;2.30;;;;;;;23.59;38.57;101019.28;10339728;28;20080;-81
2022/06/12 07:30:58;;;;;;;10.35;2.85;;;;;;;24.48;37.60;101024.31;10351965;28;20138;-81
2022/06/12 07:36:01;;;;;;;12.52;2.42;;;;;;;23.91;37.60;101039.00;10363974;28;20080;-81
2022/06/12 07:41:09;;;;;;;13.90;2.45;;;;;;;24.91;36.40;101033.22;10376303;28;20130;-81
2022/06/12 07:46:15;;;;;;;8.48;2.28;;;;;;;25.73;34.84;101034.19;10354177;28;20046;-82
2022/06/12 07:51:21;;;;;;;7.88;2.50;;;;;;;24.39;37.50;101031.81;10348680;28;20046;-79
2022/06/12 07:56:26;;;;;;;7.05;1.90;;;;;;;23.75;38.83;101034.59;10343701;28;20498;-79
2022/06/12 08:01:29;;;;;;;11.27;2.50;;;;;;;21.81;41.50;101031.00;10355455;28;20081;-81
2022/06/12 08:06:33;;;;;;;12.68;2.65;;;;;;;21.38;43.82;101036.03;10363389;28;20061;-80
2022/06/12 08:11:39;;;;;;;14.60;2.78;;;;;;;21.23;42.90;101026.91;10343177;28;20077;-81
2022/06/12 08:16:42;;;;;;;15.70;3.13;;;;;;;20.62;43.48;101037.50;10370173;28;20041;-79
2022/06/12 08:21:45;;;;;;;11.27;2.78;;;;;;;21.70;43.49;101036.03;10374328;28;20055;-80
2022/06/12 08:26:50;;;;;;;11.98;3.22;;;;;;;20.99;45.19;101046.97;10361615;28;20058;-79
2022/06/12 08:32:01;;;;;;;16.55;3.40;;;;;;;21.00;45.20;101037.72;10366042;28;20236;-80
2022/06/12 08:37:08;;;;;;;10.65;2.95;;;;;;;21.02;45.10;101031.06;10359152;28;20199;-79
2022/06/12 08:42:19;;;;;;;8.77;2.72;;;;;;;21.76;44.76;101038.91;10376483;28;20053;-79
2022/06/12 08:47:32;;;;;;;13.90;3.67;;;;;;;21.47;44.64;101035.97;10353590;28;20107;-79
2022/06/12 08:52:42;;;;;;;14.70;3.50;;;;;;;21.09;46.25;101030.38;10370522;28;20095;-79
2022/06/12 08:57:51;;;;;;;11.85;3.65;;;;;;;20.62;45.67;101026.59;10360722;28;20681;-77
2022/06/12 09:02:55;;;;;;;11.50;3.45;;;;;;;21.86;44.73;101023.09;10365789;28;20136;-80
2022/06/12 09:08:07;;;;;;;15.63;3.85;;;;;;;21.58;44.57;101017.28;10346686;28;20053;-80
2022/06/12 09:13:19;;;;;;;10.75;2.30;;;;;;;21.62;42.73;101004.97;10371239;28;20057;-78
2022/06/12 09:18:34;;;;;;;12.37;2.23;;;;;;;21.29;41.09;100998.88;10346985;28;20057;-81
2022/06/12 09:23:50;;;;;;;7.60;1.98;;;;;;;21.73;42.47;101006.41;10349295;28;20053;-80
2022/06/12 09:29:04;;;;;;;7.30;1.90;;;;;;;21.75;39.79;101004.41;10357499;28;20159;-80
2022/06/12 09:34:15;;;;;;;5.65;1.45;;;;;;;21.76;38.76;100991.56;10369407;28;20445;-81
2022/06/12 09:39:31;;;;;;;3.75;1.35;;;;;;;21.00;39.53;100991.31;10376823;28;20057;-79
2022/06/12 09:44:48;;;;;;;4.65;1.17;;;;;;;22.10;37.75;100999.28;10360257;28;20053;-81
2022/06/12 09:50:02;;;;;;;7.30;1.63;;;;;;;23.37;35.96;100980.88;10355453;28;20058;-81
2022/06/12 09:55:10;;;;;;;6.97;1.35;;;;;;;22.18;40.12;100973.75;10345477;28;20049;-81
2022/06/12 10:00:21;;;;;;;4.93;1.50;;;;;;;23.50;37.00;100973.81;10357721;28;20415;-81
2022/06/12 10:05:32;;;;;;;4.95;1.17;;;;;;;21.85;38.51;100971.31;10381580;28;21262;-80
2022/06/12 10:10:40;;;;;;;4.07;1.30;;;;;;;23.48;34.91;100956.69;10376459;28;20053;-79
2022/06/12 10:15:48;;;;;;;7.53;0.85;;;;;;;23.21;34.99;100962.75;10373443;28;20100;-80
2022/06/12 10:20:56;;;;;;;5.65;1.13;;;;;;;23.47;36.04;100953.13;10370576;28;20050;-81
2022/06/12 10:26:01;;;;;;;3.50;1.20;;;;;;;23.45;34.89;100952.47;10378127;28;21206;-79
2022/06/12 10:31:16;;;;;;;3.05;1.73;;;;;;;22.14;37.94;100962.31;10365357;28;20735;-80
2022/06/12 10:36:26;;;;;;;3.40;1.33;;;;;;;23.80;34.55;100950.69;10381701;28;20049;-80
2022/06/12 10:41:31;;;;;;;6.10;1.60;;;;;;;23.74;34.68;100942.41;10372232;28;20049;-78
2022/06/12 10:46:35;;;;;;;3.55;1.00;;;;;;;23.83;33.59;100935.75;10376324;28;20056;-80
2022/06/12 10:51:40;;;;;;;4.28;0.80;;;;;;;24.93;32.06;100931.34;10359636;28;20058;-79
2022/06/12 10:56:52;;;;;;;2.70;0.80;;;;;;;24.02;31.61;100935.03;10374975;28;20072;-80
2022/06/12 11:02:23;;;;;;;1.65;0.80;;;;;;;24.76;32.61;100930.84;10336139;28;20130;-80
2022/06/12 11:07:35;;;;;;;3.22;1.17;;;;;;;23.90;32.78;100922.94;10345699;28;20052;-79
2022/06/12 11:12:56;;;;;;;2.30;1.00;;;;;;;23.93;31.91;100925.28;10361918;28;20081;-79
2022/06/12 11:18:14;;;;;;;4.28;1.20;;;;;;;23.74;35.38;100923.19;10357991;28;20045;-82
2022/06/12 11:23:52;;;;;;;4.38;1.10;;;;;;;24.53;32.87;100904.56;10352107;28;21135;-82
2022/06/12 11:29:08;;;;;;;3.60;0.90;;;;;;;24.71;32.84;100911.38;10362242;28;20050;-83
2022/06/12 11:34:26;;;;;;;1.25;0.88;;;;;;;24.71;31.45;100906.78;10344094;28;20053;-81
2022/06/12 11:39:40;;;;;;;3.47;1.35;;;;;;;24.59;32.37;100915.78;10365406;28;20049;-82
2022/06/12 11:45:10;;;;;;;2.60;0.60;;;;;;;24.18;32.91;100903.69;10371628;28;20103;-82
2022/06/12 11:50:28;;;;;;;4.95;0.98;;;;;;;26.22;32.10;100894.44;10369266;28;20053;-81
2022/06/12 11:55:38;;;;;;;4.40;1.00;;;;;;;26.16;30.55;100887.88;10352445;28;20046;-83
2022/06/12 12:00:50;;;;;;;3.00;0.93;;;;;;;25.31;32.34;100887.69;10373416;28;20049;-81
2022/06/12 12:06:06;;;;;;;4.43;1.08;;;;;;;25.14;31.27;100889.16;10368540;28;20048;-84
2022/06/12 12:11:19;;;;;;;2.70;1.00;;;;;;;26.12;31.04;100883.03;10380278;28;20132;-80
2022/06/12 12:16:31;;;;;;;6.65;1.52;;;;;;;25.73;32.53;100888.38;10373965;28;21205;-80
2022/06/12 12:21:37;;;;;;;;;;;;;;;25.83;30.99;100887.94;10348036;28;20586;-81
2022/06/12 12:26:43;;;;;;;3.85;1.15;;;;;;;25.61;31.62;100877.13;10378074;28;19969;-81
2022/06/12 12:31:49;;;;;;;6.47;1.33;;;;;;;25.81;32.89;100888.16;10371782;28;20711;-79
2022/06/12 12:42:26;;;;;;;5.15;1.20;;;;;;;25.94;32.72;100880.94;10370294;28;20049;-82
2022/06/12 12:47:30;;;;;;;4.45;1.40;;;;;;;24.76;32.42;100873.16;10349917;28;21138;-82
2022/06/12 12:52:43;;;;;;;3.72;1.15;;;;;;;25.44;31.54;100866.78;10397542;28;20131;-79
2022/06/12 12:57:47;;;;;;;2.35;1.20;;;;;;;26.56;31.26;100870.44;10375606;28;20079;-83
2022/06/12 13:02:54;;;;;;;4.68;1.58;;;;;;;26.12;30.29;100856.34;10379835;28;20053;-78
2022/06/12 13:08:17;;;;;;;4.78;1.10;;;;;;;26.18;30.49;100857.38;10366466;28;20061;-82
2022/06/12 13:14:07;;;;;;;4.15;1.13;;;;;;;25.83;31.03;100850.25;10374772;28;20053;-83
2022/06/12 13:19:25;;;;;;;4.75;1.50;;;;;;;25.37;31.88;100839.28;10343660;28;20049;-83
2022/06/12 13:24:35;;;;;;;4.38;1.40;;;;;;;26.07;30.86;100842.38;10350088;28;20045;-81
2022/06/12 13:29:43;;;;;;;6.28;2.00;;;;;;;25.73;31.11;100838.03;10363949;28;20041;-83
2022/06/12 13:34:55;;;;;;;4.65;1.48;;;;;;;25.78;30.91;100827.19;10364068;28;20067;-82
2022/06/12 13:40:00;;;;;;;12.27;2.40;;;;;;;26.87;30.94;100842.94;10366116;28;20454;-81
2022/06/12 13:45:19;;;;;;;5.40;1.17;;;;;;;25.85;31.53;100828.88;10350013;28;20057;-83
2022/06/12 13:50:27;;;;;;;4.03;1.33;;;;;;;26.28;32.06;100817.34;10360869;28;20045;-81
2022/06/12 13:55:37;;;;;;;4.72;1.45;;;;;;;26.33;30.23;100808.44;10359905;28;20049;-83
2022/06/12 14:00:46;;;;;;;5.32;1.10;;;;;;;26.25;29.71;100801.28;10359677;28;20758;-82
2022/06/12 14:05:53;;;;;;;9.10;1.50;;;;;;;25.81;30.58;100802.88;10355010;28;20061;-81
2022/06/12 14:10:58;;;;;;;4.32;1.63;;;;;;;26.82;31.67;100797.78;10362193;28;20057;-83
2022/06/12 14:16:13;;;;;;;5.03;1.52;;;;;;;26.44;31.52;100794.00;10356522;28;20061;-82
2022/06/12 14:21:19;;;;;;;3.70;1.27;;;;;;;26.01;29.70;100783.53;10355371;28;20391;-82
2022/06/12 14:26:41;;;;;;;4.30;1.30;;;;;;;26.13;30.71;100778.19;10358803;28;20069;-81
2022/06/12 14:31:44;;;;;;;3.75;1.55;;;;;;;24.54;34.08;100782.69;10370041;28;20053;-82
2022/06/12 14:36:51;;;;;;;3.90;1.42;;;;;;;25.81;32.84;100775.34;10366020;28;20041;-82
2022/06/12 14:42:00;;;;;;;4.03;1.27;;;;;;;27.91;29.86;100766.06;10351878;28;20498;-82
2022/06/12 14:47:16;;;;;;;3.80;1.55;;;;;;;28.51;29.33;100759.81;10352053;28;20061;-82
2022/06/12 14:52:22;;;;;;;5.15;1.63;;;;;;;28.13;30.96;100749.06;10379730;28;20053;-82
2022/06/12 14:57:29;;;;;;;5.10;1.50;;;;;;;27.87;30.08;100747.47;10360750;28;20081;-82
2022/06/12 15:02:32;;;;;;;4.95;1.70;;;;;;;25.55;32.27;100745.13;10351963;28;20046;-81
2022/06/12 15:07:35;;;;;;;6.60;1.70;;;;;;;26.47;32.00;100745.88;10354571;28;20053;-83
2022/06/12 15:12:40;;;;;;;3.80;1.58;;;;;;;26.83;31.98;100734.22;10370296;28;20049;-78
2022/06/12 15:17:43;;;;;;;2.65;1.30;;;;;;;24.71;33.55;100747.47;10371154;28;20057;-81
2022/06/12 15:22:47;;;;;;;9.15;1.67;;;;;;;25.29;32.70;100733.13;10366345;28;20081;-82
2022/06/12 15:33:27;;;;;;;6.07;2.03;;;;;;;25.26;31.77;100721.69;10258546;28;20090;-80
2022/06/12 15:38:29;;;;;;;6.40;1.75;;;;;;;25.01;32.87;100738.78;10332393;28;20046;-81
2022/06/12 15:43:34;;;;;;;7.63;1.60;;;;;;;26.28;33.62;100720.16;10364374;28;20095;-80
2022/06/12 15:48:36;;;;;;;4.85;1.50;;;;;;;25.63;31.64;100722.88;10370129;28;20046;-80
2022/06/12 15:53:39;;;;;;;6.00;1.83;;;;;;;24.52;33.25;100712.56;10376591;28;20069;-79
2022/06/12 15:58:44;;;;;;;4.07;1.52;;;;;;;24.46;32.79;100716.97;10381010;28;20049;-81
2022/06/12 16:03:47;;;;;;;6.07;1.80;;;;;;;24.93;32.03;100706.03;10367638;28;20041;-78
2022/06/12 16:08:50;;;;;;;8.45;1.65;;;;;;;23.75;34.33;100706.34;10368823;28;20589;-78
2022/06/12 16:13:55;;;;;;;4.35;1.40;;;;;;;25.15;32.90;100702.06;10374053;28;20522;-81
2022/06/12 16:18:57;;;;;;;6.22;1.50;;;;;;;24.75;31.84;100707.50;10353740;28;20354;-81
2022/06/12 16:24:01;;;;;;;5.32;1.60;;;;;;;25.49;31.85;100699.25;10379600;28;20411;-80
2022/06/12 16:29:07;;;;;;;6.65;1.67;;;;;;;25.16;31.59;100694.66;10376678;28;20475;-81
2022/06/12 16:34:10;;;;;;;4.70;1.30;;;;;;;26.36;29.50;100689.59;10366963;28;20046;-79
2022/06/12 16:39:13;;;;;;;4.00;1.30;;;;;;;23.37;32.17;100697.69;10354773;28;20056;-79
2022/06/12 16:44:19;;;;;;;7.20;1.30;;;;;;;27.14;28.40;100683.69;10354579;28;21729;-79
2022/06/12 16:49:24;;;;;;;5.18;1.50;;;;;;;29.37;26.82;100677.38;10340970;28;20045;-80
2022/06/12 16:54:29;;;;;;;8.13;1.10;;;;;;;25.77;29.39;100682.47;10347778;28;20131;-79
2022/06/12 16:59:33;;;;;;;9.52;1.60;;;;;;;23.86;33.12;100697.56;10358800;28;20042;-81
2022/06/12 17:04:38;;;;;;;7.22;1.70;;;;;;;25.27;32.40;100690.41;10362162;28;20052;-80
2022/06/12 17:09:42;;;;;;;2.75;1.55;;;;;;;27.35;30.59;100684.34;10361136;28;20567;-81
2022/06/12 17:14:46;;;;;;;4.07;1.60;;;;;;;27.16;31.13;100680.72;10377610;28;20184;-80
2022/06/12 17:25:13;;;;;;;4.68;1.85;;;;;;;25.51;34.26;100695.22;10377174;28;20049;-80
2022/06/12 17:30:17;;;;;;;4.82;2.20;;;;;;;23.06;36.86;100706.28;10395110;28;20049;-79
2022/06/12 17:35:20;;;;;;;5.85;2.15;;;;;;;24.94;34.98;100707.75;10379504;28;20119;-79
2022/06/12 17:40:23;;;;;;;6.05;2.08;;;;;;;26.01;33.72;100694.63;10362705;28;20057;-80
2022/06/12 17:45:28;;;;;;;7.55;2.50;;;;;;;25.04;35.11;100699.09;10345251;28;20635;-81
2022/06/12 17:50:31;;;;;;;5.18;2.00;;;;;;;23.96;36.37;100693.59;10358796;28;20054;-80
2022/06/12 17:55:35;;;;;;;5.47;1.95;;;;;;;23.63;37.45;100703.31;10355124;28;20056;-81
2022/06/12 18:00:40;;;;;;;6.10;2.40;;;;;;;23.37;37.82;100704.03;10361452;28;20049;-81
2022/06/12 18:05:46;;;;;;;13.30;2.33;;;;;;;22.56;38.74;100706.28;10366488;28;20050;-82
2022/06/12 18:10:49;;;;;;;5.15;1.80;;;;;;;22.57;38.44;100707.94;10346222;28;20081;-80
2022/06/12 18:21:14;;;;;;;6.23;2.73;;;;;;;22.55;39.98;100705.44;10347654;28;20068;-81
2022/06/12 18:26:17;;;;;;;6.95;2.15;;;;;;;22.25;39.69;100695.63;10364926;28;20296;-81
2022/06/12 18:31:21;;;;;;;5.22;2.60;;;;;;;21.64;40.65;100698.63;10366359;28;20042;-79
2022/06/12 18:36:25;;;;;;;9.77;2.60;;;;;;;21.08;42.39;100703.66;10380095;28;20049;-80
2022/06/12 18:41:30;;;;;;;9.55;2.63;;;;;;;21.26;41.94;100711.53;10356469;28;20049;-81
2022/06/12 18:46:35;;;;;;;8.05;2.42;;;;;;;20.86;43.19;100714.41;10351922;28;20050;-78
2022/06/12 18:51:38;;;;;;;9.02;2.50;;;;;;;21.28;42.85;100715.75;10359136;28;20112;-80
2022/06/12 18:56:41;;;;;;;6.40;2.50;;;;;;;21.38;43.10;100719.06;10365414;28;20045;-80
2022/06/12 19:01:46;;;;;;;9.25;2.50;;;;;;;21.05;43.98;100720.44;10365905;28;20053;-80
2022/06/12 19:06:49;;;;;;;9.82;2.25;;;;;;;21.10;43.30;100718.00;10344070;28;20515;-80
2022/06/12 19:11:52;;;;;;;9.38;2.60;;;;;;;21.00;44.32;100720.94;10354554;28;20049;-81
2022/06/12 19:16:56;;;;;;;6.75;2.08;;;;;;;21.01;44.31;100722.66;10364858;28;20055;-80
2022/06/12 19:22:00;;;;;;;8.55;2.50;;;;;;;20.71;44.87;100719.00;10366897;28;20057;-81
2022/06/12 19:27:06;;;;;;;6.75;2.22;;;;;;;20.54;45.42;100727.31;10363734;28;20049;-81
2022/06/12 19:32:10;;;;;;;6.05;2.15;;;;;;;20.46;45.54;100723.75;10352269;28;20057;-78
2022/06/12 19:37:13;;;;;;;5.60;2.30;;;;;;;20.33;45.67;100727.09;10387811;28;20053;-79
2022/06/12 19:42:25;;;;;;;5.28;1.83;;;;;;;20.09;45.89;100730.78;10382840;28;20592;-82
2022/06/12 19:47:30;;;;;;;5.97;2.28;;;;;;;19.99;46.60;100744.63;10363697;28;20073;-80
2022/06/12 19:52:32;;;;;;;5.10;1.73;;;;;;;19.86;46.98;100745.22;10362376;28;20467;-80
2022/06/12 19:57:35;;;;;;;5.85;2.30;;;;;;;19.74;47.45;100740.31;10348101;28;20838;-80
2022/06/12 20:02:40;;;;;;;4.85;2.20;;;;;;;19.58;47.45;100760.28;10340475;28;20068;-81
2022/06/12 20:07:42;;;;;;;6.93;2.42;;;;;;;19.39;47.67;100750.56;10362718;28;20048;-80
2022/06/12 20:12:45;;;;;;;4.60;2.50;;;;;;;19.22;48.04;100760.66;10354281;28;21287;-80
2022/06/12 20:18:14;;;;;;;6.40;2.63;;;;;;;18.97;48.61;100760.66;10356063;28;20057;-80
2022/06/12 20:23:13;;;;;;;4.75;1.90;;;;;;;18.94;48.71;100758.28;10353070;28;20427;-80
2022/06/12 20:28:17;;;;;;;11.07;2.47;;;;;;;18.85;48.70;100761.19;10365630;28;20158;-79
2022/06/12 20:33:22;;;;;;;5.45;1.95;;;;;;;18.72;48.65;100767.94;10359591;28;20112;-80
2022/06/12 20:38:25;;;;;;;12.02;2.30;;;;;;;18.70;48.94;100763.69;10361553;28;20458;-78
2022/06/12 20:43:30;;;;;;;4.80;2.33;;;;;;;18.65;49.04;100769.66;10368544;28;20077;-78
2022/06/12 20:48:34;;;;;;;7.03;2.17;;;;;;;18.50;48.76;100766.72;10365497;28;20085;-78
2022/06/12 20:53:37;;;;;;;5.40;2.08;;;;;;;18.34;49.26;100764.81;10362628;28;20061;-78
2022/06/12 20:58:41;;;;;;;3.97;1.95;;;;;;;18.14;49.26;100766.13;10360729;28;20050;-79
2022/06/12 21:03:45;;;;;;;6.47;2.25;;;;;;;18.08;48.79;100769.50;10364933;28;20808;-78
2022/06/12 21:08:48;;;;;;;7.30;2.25;;;;;;;17.86;49.11;100766.31;10376824;28;20055;-78
2022/06/12 21:13:51;;;;;;;9.40;2.65;;;;;;;17.76;49.48;100767.44;10356514;28;20503;-78
2022/06/12 21:18:55;;;;;;;5.78;1.77;;;;;;;17.77;49.13;100771.84;10356698;28;21211;-78
2022/06/12 21:23:58;;;;;;;5.88;2.00;;;;;;;17.69;49.14;100772.69;10368000;28;20065;-78
2022/06/12 21:29:01;;;;;;;4.50;1.90;;;;;;;17.42;49.62;100774.56;10347834;28;20054;-78
2022/06/12 21:34:07;;;;;;;6.28;2.45;;;;;;;17.44;49.77;100769.84;10368161;28;20128;-79
2022/06/12 21:39:11;;;;;;;6.30;2.00;;;;;;;17.42;49.99;100769.13;10357616;28;20392;-79
2022/06/12 21:44:14;;;;;;;6.75;2.28;;;;;;;17.41;49.90;100761.13;10371523;28;20073;-77
2022/06/12 21:49:18;;;;;;;4.88;2.00;;;;;;;17.31;50.13;100771.28;10358123;28;20535;-79
2022/06/12 21:54:33;;;;;;;7.97;2.65;;;;;;;17.08;50.50;100766.28;10351992;28;20103;-79
2022/06/12 21:59:36;;;;;;;8.38;2.33;;;;;;;16.95;50.98;100769.44;10364416;28;20530;-79
2022/06/12 22:04:41;;;;;;;7.18;2.55;;;;;;;17.00;51.13;100763.50;10364689;28;20921;-77
2022/06/12 22:09:45;;;;;;;7.32;2.08;;;;;;;16.69;51.62;100768.50;10391627;28;20125;-79
2022/06/12 22:14:48;;;;;;;8.43;2.70;;;;;;;16.95;51.18;100771.28;10393956;28;20050;-79
2022/06/12 22:19:52;;;;;;;9.65;2.83;;;;;;;17.08;51.25;100765.44;10385819;28;20080;-78
2022/06/12 22:24:55;;;;;;;5.00;2.08;;;;;;;16.96;51.39;100770.28;10366717;28;20045;-79
2022/06/12 22:29:58;;;;;;;7.63;2.92;;;;;;;16.99;51.40;100770.81;10352864;28;20045;-79
2022/06/12 22:35:02;;;;;;;7.57;3.25;;;;;;;16.85;51.66;100786.81;10346974;28;20077;-79
2022/06/12 22:40:08;;;;;;;9.07;2.70;;;;;;;16.95;51.70;100787.56;10357427;28;20103;-79
2022/06/12 22:45:11;;;;;;;6.30;3.15;;;;;;;16.99;51.90;100783.53;10359342;28;20054;-79
2022/06/12 22:50:16;;;;;;;7.07;2.53;;;;;;;16.91;52.10;100783.47;10357461;28;20057;-79
2022/06/12 22:55:19;;;;;;;7.53;2.65;;;;;;;16.86;52.14;100783.06;10377368;28;20103;-77
2022/06/12 23:00:22;;;;;;;6.47;2.58;;;;;;;16.78;52.41;100786.56;10389166;28;20053;-77
2022/06/12 23:05:26;;;;;;;6.40;2.67;;;;;;;16.66;52.34;100780.50;10394123;28;20049;-77
2022/06/12 23:10:29;;;;;;;10.07;2.42;;;;;;;16.53;52.57;100778.19;10387401;28;20042;-77
2022/06/12 23:15:32;;;;;;;7.57;3.47;;;;;;;16.25;53.07;100784.63;10399029;28;20045;-77
2022/06/12 23:20:37;;;;;;;9.55;3.15;;;;;;;15.98;53.97;100772.78;10398453;28;20111;-77
2022/06/12 23:25:39;;;;;;;5.95;2.67;;;;;;;16.04;53.80;100764.03;10398555;28;20077;-77
2022/06/12 23:30:43;;;;;;;10.55;2.80;;;;;;;15.99;54.06;100765.50;10409522;28;20053;-77
2022/06/12 23:35:49;;;;;;;5.88;2.75;;;;;;;16.05;54.32;100763.06;10388122;28;20049;-78
2022/06/12 23:40:53;;;;;;;4.15;2.35;;;;;;;15.97;54.21;100759.41;10391561;28;20678;-78
2022/06/12 23:45:56;;;;;;;7.20;3.00;;;;;;;15.55;55.83;100760.72;10396425;28;20076;-77
2022/06/12 23:51:00;;;;;;;7.50;2.95;;;;;;;15.33;56.28;100761.00;10398161;28;20112;-77
2022/06/12 23:56:04;;;;;;;8.70;3.08;;;;;;;15.55;55.48;100759.84;10399797;28;20049;-77
